Terminal Aerodrome Forecast
Issued by NWS

Home | Current Version | Previous Version | Text Only | Print | Product List | Glossary On
Versions: 1 2 3 4 5 6 7 8 9 10 11 12
188
FTPA31 PHFO 140535
TAFHKO
TAF
PHKO 140535Z 1406/1506 02015G22KT P6SM FEW030 FEW060
     FM141000 02018G25KT P6SM FEW060=

USA.gov is the U.S. government's official web portal to all federal, state and local government web resources and services.